createdAt,value
2019-01-15T00:02:09.093Z,99.20
2019-01-15T00:04:50.580Z,99.10
2019-01-15T00:07:32.035Z,99.00
2019-01-15T00:10:13.602Z,98.80
2019-01-15T00:12:55.163Z,98.80
2019-01-15T00:15:36.708Z,98.70
2019-01-15T00:18:17.499Z,98.60
2019-01-15T00:20:59.015Z,98.50
2019-01-15T00:23:39.794Z,98.50
2019-01-15T00:26:20.920Z,98.50
2019-01-15T00:29:02.523Z,98.40
2019-01-15T00:31:43.123Z,98.50
2019-01-15T00:34:23.907Z,98.40
2019-01-15T00:37:05.324Z,98.30
2019-01-15T00:39:46.790Z,98.20
2019-01-15T00:42:27.430Z,98.10
2019-01-15T00:45:08.146Z,98.20
2019-01-15T00:47:49.500Z,98.20
2019-01-15T00:50:31.105Z,98.10
2019-01-15T00:53:12.786Z,97.60
2019-01-15T00:55:53.690Z,97.60
2019-01-15T00:58:35.221Z,97.40
2019-01-15T01:01:17.038Z,97.20
2019-01-15T01:03:46.530Z,97.30
2019-01-15T01:06:35.037Z,97.30
2019-01-15T01:09:16.511Z,97.50
2019-01-15T01:11:57.284Z,97.70
2019-01-15T01:14:38.996Z,98.20
2019-01-15T01:17:20.479Z,97.90
2019-01-15T01:19:49.914Z,97.90
2019-01-15T01:22:38.455Z,97.70
2019-01-15T01:25:26.986Z,97.70
2019-01-15T01:28:08.235Z,97.70
2019-01-15T01:30:49.169Z,97.50
2019-01-15T01:33:30.662Z,97.50
2019-01-15T01:36:12.322Z,97.60
2019-01-15T01:38:53.775Z,97.70
2019-01-15T01:41:34.489Z,97.90
2019-01-15T01:44:15.413Z,98.00
2019-01-15T01:49:35.172Z,97.60
2019-01-15T01:52:16.727Z,97.60
2019-01-15T01:54:57.442Z,97.70
2019-01-15T01:57:38.939Z,97.80
2019-01-15T02:00:19.619Z,97.70
2019-01-15T02:03:00.854Z,97.90
2019-01-15T02:05:42.458Z,97.80
2019-01-15T02:08:23.158Z,97.70
2019-01-15T02:11:04.786Z,98.00
2019-01-15T02:13:45.962Z,97.80
2019-01-15T02:16:27.613Z,97.70
2019-01-15T02:19:09.191Z,97.80
2019-01-15T02:21:49.892Z,98.00
2019-01-15T02:24:31.576Z,98.00
2019-01-15T02:27:13.274Z,98.10
2019-01-15T02:29:53.915Z,98.20
2019-01-15T02:32:34.719Z,98.30
2019-01-15T02:35:15.834Z,98.30
2019-01-15T02:40:35.867Z,98.00
2019-01-15T02:43:17.369Z,98.20
2019-01-15T02:45:58.175Z,97.90
2019-01-15T02:48:27.612Z,97.90
2019-01-15T02:51:16.126Z,98.00
2019-01-15T02:54:04.814Z,98.00
2019-01-15T02:56:46.377Z,98.00
2019-01-15T02:59:27.143Z,98.20
2019-01-15T03:02:09.144Z,98.40
2019-01-15T03:04:50.059Z,98.10
2019-01-15T03:07:31.852Z,98.00
2019-01-15T03:10:12.615Z,98.40
2019-01-15T03:12:56.130Z,98.00
2019-01-15T03:15:37.729Z,98.00
2019-01-15T03:18:19.149Z,98.20
2019-01-15T03:21:00.616Z,98.20
2019-01-15T03:23:41.583Z,98.20
2019-01-15T03:26:22.669Z,98.60
2019-01-15T03:29:04.175Z,98.20
2019-01-15T03:31:45.811Z,98.20
2019-01-15T03:34:27.182Z,98.20
2019-01-15T03:37:08.696Z,98.10
2019-01-15T03:39:49.864Z,98.10
2019-01-15T03:42:30.572Z,98.00
2019-01-15T03:45:12.166Z,98.00
2019-01-15T03:47:41.552Z,97.70
2019-01-15T03:50:30.052Z,97.60
2019-01-15T03:53:18.583Z,97.40
2019-01-15T03:56:00.070Z,97.40
2019-01-15T03:58:41.699Z,97.20
2019-01-15T04:01:22.569Z,97.10
2019-01-15T04:04:04.180Z,97.20
2019-01-15T04:06:45.020Z,97.60
2019-01-15T04:09:26.050Z,97.20
2019-01-15T04:12:07.696Z,97.00
2019-01-15T04:14:48.321Z,97.10
2019-01-15T04:17:29.914Z,97.00
2019-01-15T04:20:10.658Z,97.00
2019-01-15T04:22:51.335Z,96.90
2019-01-15T04:25:32.503Z,96.80
2019-01-15T04:28:13.117Z,96.70
2019-01-15T04:30:53.967Z,96.60
2019-01-15T04:33:34.636Z,96.60
2019-01-15T04:36:16.194Z,96.60
2019-01-15T04:38:57.650Z,96.70
2019-01-15T04:41:38.979Z,96.60
2019-01-15T04:44:20.452Z,96.40
2019-01-15T04:47:01.126Z,96.40
2019-01-15T04:49:41.898Z,96.40
2019-01-15T04:52:23.872Z,96.40
2019-01-15T04:55:04.999Z,96.40
2019-01-15T04:57:46.562Z,96.50
2019-01-15T05:00:28.178Z,96.50
2019-01-15T05:03:11.800Z,96.40
2019-01-15T05:05:52.470Z,96.50
2019-01-15T05:08:33.892Z,96.50
2019-01-15T05:11:15.504Z,96.60
2019-01-15T05:13:57.094Z,96.70
2019-01-15T05:16:38.601Z,96.70
2019-01-15T05:19:20.117Z,96.70
2019-01-15T05:22:01.761Z,96.80
2019-01-15T05:24:42.522Z,96.80
2019-01-15T05:30:08.791Z,96.90
2019-01-15T05:32:50.079Z,96.80
2019-01-15T05:35:31.059Z,96.90
2019-01-15T05:38:12.656Z,96.80
2019-01-15T05:40:55.142Z,96.80
2019-01-15T05:43:36.624Z,96.80
2019-01-15T05:46:18.193Z,96.90
2019-01-15T05:48:58.812Z,96.90
2019-01-15T05:51:41.759Z,96.80
2019-01-15T05:54:12.125Z,96.80
2019-01-15T05:57:00.665Z,96.80
2019-01-15T05:59:41.630Z,96.70
2019-01-15T06:02:22.635Z,96.80
2019-01-15T06:05:03.418Z,96.80
2019-01-15T06:07:45.034Z,96.70
2019-01-15T06:10:26.591Z,96.90
2019-01-15T06:13:08.321Z,96.90
2019-01-15T06:15:49.785Z,96.80
2019-01-15T06:18:31.318Z,96.80
2019-01-15T06:21:12.678Z,96.60
2019-01-15T06:23:53.898Z,96.60
2019-01-15T06:26:35.322Z,96.60
2019-01-15T06:29:16.198Z,96.60
2019-01-15T06:31:57.730Z,96.60
2019-01-15T06:34:39.406Z,96.70
2019-01-15T06:37:20.111Z,96.80
2019-01-15T06:40:00.851Z,96.60
2019-01-15T06:42:42.278Z,96.60
2019-01-15T06:45:22.942Z,96.70
2019-01-15T06:48:03.722Z,96.60
2019-01-15T06:50:44.749Z,96.50
2019-01-15T06:53:25.424Z,96.70
2019-01-15T06:56:06.488Z,96.60
2019-01-15T06:58:48.704Z,96.70
2019-01-15T07:01:30.197Z,96.80
2019-01-15T07:04:14.182Z,96.70
2019-01-15T07:06:55.566Z,96.60
2019-01-15T07:09:36.789Z,96.80
2019-01-15T07:12:18.472Z,96.70
2019-01-15T07:15:00.470Z,96.60
2019-01-15T07:17:43.897Z,96.70
2019-01-15T07:20:25.361Z,96.90
2019-01-15T07:23:06.178Z,97.00
2019-01-15T07:25:47.616Z,97.00
2019-01-15T07:31:07.303Z,96.70
2019-01-15T07:33:48.811Z,96.70
2019-01-15T07:36:29.993Z,96.80
2019-01-15T07:39:11.495Z,96.70
2019-01-15T07:41:53.877Z,96.70
2019-01-15T07:44:36.249Z,96.70
2019-01-15T07:47:17.911Z,96.80
2019-01-15T07:49:59.471Z,96.80
2019-01-15T07:52:40.025Z,96.80
2019-01-15T07:55:21.688Z,96.80
2019-01-15T08:00:45.780Z,96.80
2019-01-15T08:03:26.709Z,96.80
2019-01-15T08:06:07.420Z,96.80
2019-01-15T08:08:48.127Z,97.00
2019-01-15T08:11:29.667Z,96.90
2019-01-15T08:14:12.236Z,97.00
2019-01-15T08:16:54.209Z,97.00
2019-01-15T08:19:35.596Z,96.90
2019-01-15T08:22:16.496Z,97.00
2019-01-15T08:24:59.609Z,97.30
2019-01-15T08:27:41.067Z,97.00
2019-01-15T08:30:22.676Z,97.00
2019-01-15T08:33:04.238Z,97.00
2019-01-15T08:35:45.342Z,97.00
2019-01-15T08:43:57.226Z,97.10
2019-01-15T08:46:26.762Z,97.20
2019-01-15T08:49:15.462Z,97.10
2019-01-15T08:52:03.931Z,97.10
2019-01-15T08:54:45.774Z,96.90
2019-01-15T08:57:26.950Z,96.80
2019-01-15T09:00:08.180Z,96.60
2019-01-15T09:02:49.018Z,96.50
2019-01-15T09:05:30.870Z,96.40
2019-01-15T09:08:12.319Z,96.20
2019-01-15T09:10:53.978Z,96.20
2019-01-15T09:13:35.371Z,96.10
2019-01-15T09:16:04.893Z,96.00
2019-01-15T09:18:53.565Z,95.90
2019-01-15T09:21:35.287Z,95.80
2019-01-15T09:24:16.818Z,95.70
2019-01-15T09:26:58.482Z,95.30
2019-01-15T09:29:39.913Z,95.00
2019-01-15T09:32:21.502Z,94.70
2019-01-15T09:35:03.052Z,94.50
2019-01-15T09:37:44.419Z,94.30
2019-01-15T09:40:25.755Z,94.20
2019-01-15T09:43:07.130Z,94.10
2019-01-15T09:45:48.714Z,94.10
2019-01-15T09:48:32.862Z,94.10
2019-01-15T09:51:14.053Z,94.20
2019-01-15T09:53:55.742Z,94.10
2019-01-15T09:56:38.605Z,94.20
2019-01-15T09:59:20.175Z,94.60
2019-01-15T10:02:01.394Z,94.20
2019-01-15T10:04:42.599Z,94.20
2019-01-15T10:07:24.088Z,94.10
2019-01-15T10:10:05.427Z,94.20
2019-01-15T10:12:47.063Z,94.30
2019-01-15T10:15:30.094Z,94.30
2019-01-15T10:18:11.474Z,94.40
2019-01-15T10:27:03.801Z,93.50
2019-01-15T10:29:47.098Z,94.20
2019-01-15T10:32:26.932Z,94.40
2019-01-15T10:35:08.273Z,94.30
2019-01-15T10:37:49.639Z,94.50
2019-01-15T10:40:32.192Z,94.40
2019-01-15T10:43:13.727Z,94.50
2019-01-15T10:45:54.559Z,94.50
2019-01-15T10:48:36.935Z,94.50
2019-01-15T10:51:18.673Z,94.90
2019-01-15T10:54:00.309Z,94.50
2019-01-15T10:56:41.888Z,94.60
2019-01-15T10:59:23.411Z,94.80
2019-01-15T11:02:05.058Z,94.70
2019-01-15T11:04:46.309Z,94.70
2019-01-15T11:07:29.021Z,94.90
2019-01-15T11:10:11.362Z,94.90
2019-01-15T11:12:52.902Z,94.90
2019-01-15T11:18:17.870Z,95.00
2019-01-15T11:21:00.353Z,95.10
2019-01-15T11:23:41.904Z,95.10
2019-01-15T11:26:23.298Z,95.40
2019-01-15T11:29:04.085Z,95.20
2019-01-15T11:31:44.835Z,95.50
2019-01-15T11:34:27.997Z,95.10
2019-01-15T11:37:09.111Z,95.00
2019-01-15T11:39:50.680Z,95.10
2019-01-15T11:42:31.907Z,95.20
2019-01-15T11:45:13.206Z,95.40
2019-01-15T11:47:54.311Z,95.40
2019-01-15T11:50:35.357Z,95.50
2019-01-15T11:53:17.462Z,95.40
2019-01-15T11:55:58.175Z,95.40
2019-01-15T11:58:39.232Z,95.40
2019-01-15T12:01:41.893Z,95.60
2019-01-15T12:04:42.081Z,95.50
2019-01-15T12:10:33.076Z,95.50
2019-01-15T12:13:33.158Z,95.40
2019-01-15T12:16:35.007Z,95.30
2019-01-15T12:19:37.972Z,95.30
2019-01-15T12:22:40.861Z,95.50
2019-01-15T12:25:41.435Z,95.50
2019-01-15T12:28:42.011Z,95.60
2019-01-15T12:31:45.117Z,95.70
2019-01-15T12:34:48.139Z,95.50
2019-01-15T12:37:43.599Z,95.30
2019-01-15T12:40:26.131Z,95.30
2019-01-15T12:46:30.759Z,95.10
2019-01-15T12:49:32.562Z,95.10
2019-01-15T12:52:32.704Z,94.80
2019-01-15T12:55:32.836Z,94.60
2019-01-15T12:58:33.703Z,94.30
2019-01-15T13:01:29.626Z,93.70
2019-01-15T13:04:21.245Z,93.20
2019-01-15T13:07:25.205Z,92.90
2019-01-15T13:10:25.819Z,92.70
2019-01-15T13:13:08.029Z,92.60
2019-01-15T13:16:08.558Z,92.40
2019-01-15T13:19:07.598Z,92.40
2019-01-15T13:24:50.677Z,92.00
2019-01-15T13:27:57.037Z,91.60
2019-01-15T13:30:55.818Z,91.50
2019-01-15T13:33:55.948Z,91.40
2019-01-15T13:36:57.599Z,91.40
2019-01-15T13:39:58.344Z,91.30
2019-01-15T13:42:38.305Z,91.30
2019-01-15T13:45:41.967Z,91.40
2019-01-15T13:48:29.118Z,91.70
2019-01-15T13:51:36.822Z,91.70
2019-01-15T13:54:36.687Z,91.70
2019-01-15T14:00:43.831Z,91.90
2019-01-15T14:06:48.203Z,91.60
2019-01-15T14:09:48.550Z,91.30
2019-01-15T14:12:46.257Z,91.30
2019-01-15T14:18:47.290Z,91.30
2019-01-15T14:21:47.976Z,91.30
2019-01-15T14:24:48.129Z,91.30
2019-01-15T14:27:49.563Z,91.30
2019-01-15T14:30:49.959Z,91.20
2019-01-15T14:33:50.496Z,91.20
2019-01-15T14:36:50.996Z,91.40
2019-01-15T14:39:30.785Z,91.50
2019-01-15T14:42:33.653Z,91.70
2019-01-15T14:45:37.035Z,91.80
2019-01-15T14:48:36.743Z,91.90
2019-01-15T14:51:36.667Z,92.10
2019-01-15T14:54:25.179Z,92.30
2019-01-15T14:57:25.450Z,92.40
2019-01-15T15:00:31.995Z,92.60
2019-01-15T15:03:23.874Z,92.60
2019-01-15T15:06:17.983Z,92.70
2019-01-15T15:09:18.171Z,92.60
2019-01-15T15:12:07.489Z,92.70
2019-01-15T15:14:47.386Z,92.70
2019-01-15T15:17:47.289Z,92.80
2019-01-15T15:20:51.086Z,92.70
2019-01-15T15:23:50.240Z,92.70
2019-01-15T15:26:42.053Z,92.90
2019-01-15T15:29:44.839Z,92.80
2019-01-15T15:32:43.942Z,92.70
2019-01-15T15:35:44.109Z,92.70
2019-01-15T15:41:19.056Z,92.70
2019-01-15T15:44:20.510Z,92.70
2019-01-15T15:47:11.454Z,92.70
2019-01-15T15:50:17.782Z,92.70
2019-01-15T15:53:21.188Z,92.70
2019-01-15T15:56:21.676Z,92.70
2019-01-15T15:59:21.618Z,92.60
2019-01-15T16:02:22.008Z,92.50
2019-01-15T16:05:21.767Z,92.60
2019-01-15T16:08:22.364Z,92.80
2019-01-15T16:11:22.761Z,92.90
2019-01-15T16:14:17.084Z,93.00
2019-01-15T16:17:16.770Z,93.20
2019-01-15T16:20:16.751Z,93.30
2019-01-15T16:23:17.362Z,93.40
2019-01-15T16:26:22.071Z,93.40
2019-01-15T16:29:25.345Z,93.50
2019-01-15T16:32:31.196Z,93.60
2019-01-15T16:38:39.193Z,93.60
2019-01-15T16:41:38.946Z,93.60
2019-01-15T16:44:39.438Z,93.60
2019-01-15T16:47:32.454Z,93.70
2019-01-15T16:50:31.084Z,93.60
2019-01-15T16:53:43.314Z,93.60
2019-01-15T16:56:41.043Z,93.60
2019-01-15T17:02:33.582Z,93.80
2019-01-15T17:05:32.823Z,93.80
2019-01-15T17:08:22.312Z,93.80
2019-01-15T17:11:30.664Z,94.00
2019-01-15T17:14:10.365Z,94.00
2019-01-15T17:17:10.150Z,94.10
2019-01-15T17:20:10.683Z,94.00
2019-01-15T17:23:08.177Z,94.10
2019-01-15T17:26:11.363Z,94.00
2019-01-15T17:28:59.660Z,94.00
2019-01-15T17:32:07.305Z,94.00
2019-01-15T17:35:07.836Z,94.10
2019-01-15T17:38:08.155Z,94.20
2019-01-15T17:41:02.691Z,94.30
2019-01-15T17:43:56.871Z,94.30
2019-01-15T17:49:57.885Z,94.30
2019-01-15T17:52:57.948Z,94.30
2019-01-15T17:55:58.386Z,94.30
2019-01-15T17:58:58.507Z,94.30
2019-01-15T18:01:58.964Z,94.40
2019-01-15T18:05:02.361Z,94.40
2019-01-15T18:08:08.728Z,94.30
2019-01-15T18:11:10.347Z,94.40
2019-01-15T18:14:10.704Z,94.50
2019-01-15T18:17:05.148Z,94.50
2019-01-15T18:20:05.665Z,94.60
2019-01-15T18:23:11.419Z,94.60
2019-01-15T18:26:11.580Z,94.60
2019-01-15T18:29:10.483Z,94.50
2019-01-15T18:35:02.026Z,94.70
2019-01-15T18:38:02.845Z,94.80
2019-01-15T18:41:02.928Z,95.10
2019-01-15T18:44:00.015Z,95.40
2019-01-15T18:47:03.016Z,95.50
2019-01-15T18:49:51.767Z,95.70
2019-01-15T18:52:59.280Z,95.90
2019-01-15T18:55:59.560Z,96.20
2019-01-15T18:58:59.531Z,96.50
2019-01-15T19:01:59.721Z,96.50
2019-01-15T19:05:01.387Z,96.80
2019-01-15T19:08:04.600Z,97.10
2019-01-15T19:11:05.056Z,97.70
2019-01-15T19:13:58.450Z,97.90
2019-01-15T19:16:47.643Z,98.20
2019-01-15T19:19:48.135Z,98.40
2019-01-15T19:22:42.358Z,98.60
2019-01-15T19:25:42.443Z,98.80
2019-01-15T19:28:42.759Z,98.90
2019-01-15T19:31:42.503Z,99.00
2019-01-15T19:34:43.969Z,99.10
2019-01-15T19:37:44.286Z,99.10
2019-01-15T19:40:44.970Z,99.40
2019-01-15T19:43:45.503Z,99.50
2019-01-15T19:46:49.125Z,99.60
2019-01-15T19:49:49.650Z,99.60
2019-01-15T19:52:52.635Z,99.50
2019-01-15T19:55:55.615Z,99.60
2019-01-15T19:58:56.127Z,99.70
2019-01-15T20:01:56.537Z,99.80
2019-01-15T20:04:59.821Z,99.80
2019-01-15T20:08:00.356Z,99.80
2019-01-15T20:11:03.381Z,99.80
2019-01-15T20:13:51.826Z,99.80
2019-01-15T20:16:59.321Z,99.90
2019-01-15T20:19:57.865Z,99.90
2019-01-15T20:22:56.795Z,99.90
2019-01-15T20:25:39.245Z,99.90
2019-01-15T20:28:39.430Z,99.90
2019-01-15T20:31:39.934Z,99.90
2019-01-15T20:34:40.207Z,99.90
2019-01-15T20:37:46.349Z,99.90
2019-01-15T20:40:52.561Z,99.90
2019-01-15T20:43:52.450Z,99.90
2019-01-15T20:46:52.599Z,99.90
2019-01-15T20:49:53.276Z,99.90
2019-01-15T20:55:38.527Z,99.90
2019-01-15T20:58:38.758Z,99.90
2019-01-15T21:01:37.069Z,99.90
2019-01-15T21:04:36.972Z,99.90
2019-01-15T21:07:37.125Z,99.90
2019-01-15T21:10:36.525Z,99.90
2019-01-15T21:13:31.276Z,99.90
2019-01-15T21:16:18.295Z,99.90
2019-01-15T21:19:05.253Z,99.90
2019-01-15T21:22:12.695Z,99.90
2019-01-15T21:28:17.956Z,99.90
2019-01-15T21:31:18.584Z,99.90
2019-01-15T21:34:18.428Z,99.90
2019-01-15T21:37:18.100Z,99.90
2019-01-15T21:40:18.164Z,99.90
2019-01-15T21:43:31.005Z,99.90
2019-01-15T21:46:15.188Z,99.90
2019-01-15T21:49:15.251Z,99.90
2019-01-15T21:52:12.952Z,99.90
2019-01-15T21:55:13.379Z,99.90
2019-01-15T21:58:19.805Z,99.90
2019-01-15T22:01:22.571Z,99.90
2019-01-15T22:04:22.543Z,99.90
2019-01-15T22:07:20.265Z,99.90
2019-01-15T22:10:18.698Z,99.90
2019-01-15T22:13:10.928Z,99.90
2019-01-15T22:16:11.065Z,99.90
2019-01-15T22:18:59.502Z,99.90
2019-01-15T22:22:06.873Z,99.90
2019-01-15T22:25:10.899Z,99.90
2019-01-15T22:28:11.337Z,99.90
2019-01-15T22:31:16.793Z,99.90
2019-01-15T22:34:17.286Z,99.90
2019-01-15T22:37:11.769Z,99.90
2019-01-15T22:40:12.138Z,99.90
2019-01-15T22:43:12.249Z,99.90
2019-01-15T22:46:18.466Z,99.90
2019-01-15T22:49:18.259Z,99.90
2019-01-15T22:52:18.560Z,99.90
2019-01-15T22:55:16.336Z,99.90
2019-01-15T22:58:16.018Z,99.90
2019-01-15T23:01:17.351Z,99.90
2019-01-15T23:04:09.308Z,99.90
2019-01-15T23:07:08.944Z,99.90
2019-01-15T23:10:04.085Z,99.90
2019-01-15T23:12:58.420Z,99.90
2019-01-15T23:15:51.012Z,99.90
2019-01-15T23:18:49.693Z,99.90
2019-01-15T23:21:49.729Z,99.90
2019-01-15T23:24:49.790Z,99.80
2019-01-15T23:27:39.033Z,99.70
2019-01-15T23:30:42.222Z,99.50
2019-01-15T23:33:34.072Z,99.50
2019-01-15T23:36:27.632Z,99.60
2019-01-15T23:39:27.988Z,99.50
2019-01-15T23:42:20.987Z,99.40
2019-01-15T23:45:20.748Z,99.40
2019-01-15T23:48:21.154Z,99.40
2019-01-15T23:51:20.714Z,99.40
2019-01-15T23:54:27.143Z,99.50
2019-01-15T23:57:30.540Z,99.50
